sensor_id;sensor_type;location;lat;lon;timestamp;pressure;altitude;pressure_sealevel;temperature;humidity
11415;BME280;5763;42.714;23.244;2022-08-25T00:01:41;94466.03;;;22.19;88.80
11415;BME280;5763;42.714;23.244;2022-08-25T00:04:13;94458.53;;;22.14;89.36
11415;BME280;5763;42.714;23.244;2022-08-25T00:06:41;94468.94;;;22.13;89.24
11415;BME280;5763;42.714;23.244;2022-08-25T00:09:09;94463.81;;;22.17;88.67
11415;BME280;5763;42.714;23.244;2022-08-25T00:11:41;94459.06;;;22.12;89.14
11415;BME280;5763;42.714;23.244;2022-08-25T00:14:11;94457.78;;;22.13;88.09
11415;BME280;5763;42.714;23.244;2022-08-25T00:16:38;94456.56;;;22.09;87.74
11415;BME280;5763;42.714;23.244;2022-08-25T00:19:11;94465.78;;;22.04;88.48
11415;BME280;5763;42.714;23.244;2022-08-25T00:21:40;94459.78;;;22.00;87.43
11415;BME280;5763;42.714;23.244;2022-08-25T00:24:12;94452.47;;;21.97;87.19
11415;BME280;5763;42.714;23.244;2022-08-25T00:26:40;94444.88;;;21.97;87.59
11415;BME280;5763;42.714;23.244;2022-08-25T00:29:09;94441.53;;;21.99;87.49
11415;BME280;5763;42.714;23.244;2022-08-25T00:31:37;94448.38;;;21.98;86.52
11415;BME280;5763;42.714;23.244;2022-08-25T00:34:05;94448.19;;;21.96;86.92
11415;BME280;5763;42.714;23.244;2022-08-25T00:36:34;94456.44;;;22.01;86.58
11415;BME280;5763;42.714;23.244;2022-08-25T00:39:03;94465.19;;;22.11;86.62
11415;BME280;5763;42.714;23.244;2022-08-25T00:41:30;94459.66;;;22.05;87.03
11415;BME280;5763;42.714;23.244;2022-08-25T00:44:02;94453.97;;;21.98;87.58
11415;BME280;5763;42.714;23.244;2022-08-25T00:46:32;94449.22;;;21.93;87.75
11415;BME280;5763;42.714;23.244;2022-08-25T00:49:03;94450.72;;;21.94;87.80
11415;BME280;5763;42.714;23.244;2022-08-25T00:51:34;94457.97;;;21.84;88.71
11415;BME280;5763;42.714;23.244;2022-08-25T00:54:04;94462.78;;;21.83;88.99
11415;BME280;5763;42.714;23.244;2022-08-25T00:56:31;94455.41;;;21.86;88.51
11415;BME280;5763;42.714;23.244;2022-08-25T00:59:01;94446.81;;;21.84;88.58
11415;BME280;5763;42.714;23.244;2022-08-25T01:01:28;94468.28;;;21.89;88.86
11415;BME280;5763;42.714;23.244;2022-08-25T01:03:55;94442.00;;;21.84;88.90
11415;BME280;5763;42.714;23.244;2022-08-25T01:06:23;94439.75;;;21.83;89.21
11415;BME280;5763;42.714;23.244;2022-08-25T01:08:50;94434.63;;;21.87;89.24
11415;BME280;5763;42.714;23.244;2022-08-25T01:11:20;94432.66;;;21.82;88.67
11415;BME280;5763;42.714;23.244;2022-08-25T01:13:50;94427.63;;;21.80;87.70
11415;BME280;5763;42.714;23.244;2022-08-25T01:16:18;94433.19;;;21.80;87.05
11415;BME280;5763;42.714;23.244;2022-08-25T01:18:47;94435.25;;;21.80;86.74
11415;BME280;5763;42.714;23.244;2022-08-25T01:21:18;94442.94;;;21.74;87.25
11415;BME280;5763;42.714;23.244;2022-08-25T01:23:45;94431.63;;;21.85;87.03
11415;BME280;5763;42.714;23.244;2022-08-25T01:26:15;94437.56;;;21.76;87.65
11415;BME280;5763;42.714;23.244;2022-08-25T01:28:47;94433.28;;;21.75;88.13
11415;BME280;5763;42.714;23.244;2022-08-25T01:31:32;94416.34;;;21.73;88.24
11415;BME280;5763;42.714;23.244;2022-08-25T01:33:59;94425.97;;;21.72;87.97
11415;BME280;5763;42.714;23.244;2022-08-25T01:36:29;94437.88;;;21.72;87.93
11415;BME280;5763;42.714;23.244;2022-08-25T01:38:56;94433.03;;;21.73;88.40
11415;BME280;5763;42.714;23.244;2022-08-25T01:41:29;94402.72;;;21.51;88.25
11415;BME280;5763;42.714;23.244;2022-08-25T01:43:57;94428.75;;;21.72;88.17
11415;BME280;5763;42.714;23.244;2022-08-25T01:46:24;94421.91;;;21.73;88.75
11415;BME280;5763;42.714;23.244;2022-08-25T01:48:51;94431.34;;;21.70;89.40
11415;BME280;5763;42.714;23.244;2022-08-25T01:51:19;94419.13;;;21.73;88.78
11415;BME280;5763;42.714;23.244;2022-08-25T01:53:47;94418.59;;;21.74;88.29
11415;BME280;5763;42.714;23.244;2022-08-25T01:56:16;94427.41;;;21.78;86.40
11415;BME280;5763;42.714;23.244;2022-08-25T01:58:45;94427.06;;;21.69;86.85
11415;BME280;5763;42.714;23.244;2022-08-25T02:01:15;94430.91;;;21.60;87.74
11415;BME280;5763;42.714;23.244;2022-08-25T02:03:44;94440.50;;;21.65;87.14
11415;BME280;5763;42.714;23.244;2022-08-25T02:06:12;94444.56;;;21.64;87.39
11415;BME280;5763;42.714;23.244;2022-08-25T02:08:40;94431.91;;;21.63;87.54
11415;BME280;5763;42.714;23.244;2022-08-25T02:11:11;94432.50;;;21.56;88.19
11415;BME280;5763;42.714;23.244;2022-08-25T02:13:38;94428.44;;;21.57;88.33
11415;BME280;5763;42.714;23.244;2022-08-25T02:16:06;94431.91;;;21.63;88.06
11415;BME280;5763;42.714;23.244;2022-08-25T02:18:34;94428.28;;;21.68;87.95
11415;BME280;5763;42.714;23.244;2022-08-25T02:21:01;94431.06;;;21.68;88.07
11415;BME280;5763;42.714;23.244;2022-08-25T02:23:27;94420.66;;;21.74;87.49
11415;BME280;5763;42.714;23.244;2022-08-25T02:25:54;94416.25;;;21.78;87.59
11415;BME280;5763;42.714;23.244;2022-08-25T02:28:24;94417.44;;;21.83;88.21
11415;BME280;5763;42.714;23.244;2022-08-25T02:30:51;94416.47;;;21.80;88.96
11415;BME280;5763;42.714;23.244;2022-08-25T02:33:18;94406.94;;;21.76;89.55
11415;BME280;5763;42.714;23.244;2022-08-25T02:35:45;94402.84;;;21.77;89.78
11415;BME280;5763;42.714;23.244;2022-08-25T02:38:12;94409.84;;;21.83;89.98
11415;BME280;5763;42.714;23.244;2022-08-25T02:40:39;94419.41;;;21.88;87.86
11415;BME280;5763;42.714;23.244;2022-08-25T02:43:05;94418.28;;;21.78;88.34
11415;BME280;5763;42.714;23.244;2022-08-25T02:45:34;94408.44;;;21.77;88.16
11415;BME280;5763;42.714;23.244;2022-08-25T02:48:01;94416.25;;;21.78;88.94
11415;BME280;5763;42.714;23.244;2022-08-25T02:50:28;94413.16;;;21.82;88.21
11415;BME280;5763;42.714;23.244;2022-08-25T02:52:55;94422.56;;;21.79;88.14
11415;BME280;5763;42.714;23.244;2022-08-25T02:55:21;94421.06;;;21.78;87.96
11415;BME280;5763;42.714;23.244;2022-08-25T02:57:48;94425.59;;;21.81;88.07
11415;BME280;5763;42.714;23.244;2022-08-25T03:00:16;94424.09;;;21.80;87.29
11415;BME280;5763;42.714;23.244;2022-08-25T03:02:44;94427.72;;;21.75;88.17
11415;BME280;5763;42.714;23.244;2022-08-25T03:05:13;94425.97;;;21.72;87.96
11415;BME280;5763;42.714;23.244;2022-08-25T03:07:40;94434.66;;;21.68;88.50
11415;BME280;5763;42.714;23.244;2022-08-25T03:10:10;94434.66;;;21.68;88.23
11415;BME280;5763;42.714;23.244;2022-08-25T03:12:38;94437.66;;;21.70;87.89
11415;BME280;5763;42.714;23.244;2022-08-25T03:15:06;94432.63;;;21.69;87.53
11415;BME280;5763;42.714;23.244;2022-08-25T03:17:33;94430.06;;;21.71;87.14
11415;BME280;5763;42.714;23.244;2022-08-25T03:20:03;94433.59;;;21.71;87.40
11415;BME280;5763;42.714;23.244;2022-08-25T03:22:31;94437.91;;;21.67;88.13
11415;BME280;5763;42.714;23.244;2022-08-25T03:24:58;94420.75;;;21.63;87.47
11415;BME280;5763;42.714;23.244;2022-08-25T03:27:46;94428.44;;;21.57;88.39
11415;BME280;5763;42.714;23.244;2022-08-25T03:30:14;94438.03;;;21.61;88.77
11415;BME280;5763;42.714;23.244;2022-08-25T03:32:41;94436.94;;;21.64;88.66
11415;BME280;5763;42.714;23.244;2022-08-25T03:35:10;94429.28;;;21.70;86.94
11415;BME280;5763;42.714;23.244;2022-08-25T03:37:37;94435.84;;;21.73;87.25
11415;BME280;5763;42.714;23.244;2022-08-25T03:40:07;94426.44;;;21.76;86.92
11415;BME280;5763;42.714;23.244;2022-08-25T03:42:35;94425.00;;;21.69;87.00
11415;BME280;5763;42.714;23.244;2022-08-25T03:45:06;94430.41;;;21.62;87.36
11415;BME280;5763;42.714;23.244;2022-08-25T03:47:36;94430.09;;;21.65;87.63
11415;BME280;5763;42.714;23.244;2022-08-25T03:50:03;94430.41;;;21.62;88.10
11415;BME280;5763;42.714;23.244;2022-08-25T03:52:31;94429.94;;;21.58;88.52
11415;BME280;5763;42.714;23.244;2022-08-25T03:54:58;94425.97;;;21.53;88.44
11415;BME280;5763;42.714;23.244;2022-08-25T03:57:25;94427.91;;;21.58;88.42
11415;BME280;5763;42.714;23.244;2022-08-25T03:59:52;94415.34;;;21.52;88.87
11415;BME280;5763;42.714;23.244;2022-08-25T04:02:19;94427.59;;;21.62;88.67
11415;BME280;5763;42.714;23.244;2022-08-25T04:04:46;94418.53;;;21.61;88.30
11415;BME280;5763;42.714;23.244;2022-08-25T04:07:13;94429.84;;;21.69;87.09
11415;BME280;5763;42.714;23.244;2022-08-25T04:09:41;94414.53;;;21.75;86.30
11415;BME280;5763;42.714;23.244;2022-08-25T04:12:08;94420.84;;;21.76;85.93
11415;BME280;5763;42.714;23.244;2022-08-25T04:14:35;94421.69;;;21.71;86.59
11415;BME280;5763;42.714;23.244;2022-08-25T04:17:02;94411.41;;;21.60;87.41
11415;BME280;5763;42.714;23.244;2022-08-25T04:19:29;94417.13;;;21.68;87.71
11415;BME280;5763;42.714;23.244;2022-08-25T04:21:56;94416.94;;;21.66;88.30
11415;BME280;5763;42.714;23.244;2022-08-25T04:24:23;94417.09;;;21.73;86.88
11415;BME280;5763;42.714;23.244;2022-08-25T04:26:51;94415.34;;;21.70;86.65
11415;BME280;5763;42.714;23.244;2022-08-25T04:29:20;94415.75;;;21.80;85.51
11415;BME280;5763;42.714;23.244;2022-08-25T04:31:48;94421.53;;;21.82;85.25
11415;BME280;5763;42.714;23.244;2022-08-25T04:34:16;94421.13;;;21.91;84.92
11415;BME280;5763;42.714;23.244;2022-08-25T04:36:43;94410.00;;;21.91;84.74
11415;BME280;5763;42.714;23.244;2022-08-25T04:39:10;94414.91;;;21.85;85.41
11415;BME280;5763;42.714;23.244;2022-08-25T04:41:37;94412.53;;;21.89;85.14
11415;BME280;5763;42.714;23.244;2022-08-25T04:44:05;94423.09;;;21.96;85.18
11415;BME280;5763;42.714;23.244;2022-08-25T04:46:33;94414.81;;;21.90;86.15
11415;BME280;5763;42.714;23.244;2022-08-25T04:49:01;94427.59;;;21.99;86.06
11415;BME280;5763;42.714;23.244;2022-08-25T04:51:30;94429.53;;;22.04;86.34
11415;BME280;5763;42.714;23.244;2022-08-25T04:53:58;94426.47;;;22.07;85.99
11415;BME280;5763;42.714;23.244;2022-08-25T04:56:26;94427.66;;;22.12;86.43
11415;BME280;5763;42.714;23.244;2022-08-25T04:58:54;94422.84;;;22.12;85.65
11415;BME280;5763;42.714;23.244;2022-08-25T05:01:23;94431.72;;;22.11;86.13
11415;BME280;5763;42.714;23.244;2022-08-25T05:03:54;94434.72;;;22.13;85.18
11415;BME280;5763;42.714;23.244;2022-08-25T05:06:21;94428.84;;;22.16;83.80
11415;BME280;5763;42.714;23.244;2022-08-25T05:08:48;94432.59;;;22.19;83.97
11415;BME280;5763;42.714;23.244;2022-08-25T05:11:15;94430.34;;;22.17;84.01
11415;BME280;5763;42.714;23.244;2022-08-25T05:13:44;94426.81;;;22.17;83.97
11415;BME280;5763;42.714;23.244;2022-08-25T05:16:11;94438.16;;;22.19;83.98
11415;BME280;5763;42.714;23.244;2022-08-25T05:18:39;94427.59;;;22.30;83.27
11415;BME280;5763;42.714;23.244;2022-08-25T05:21:09;94435.75;;;22.28;82.59
11415;BME280;5763;42.714;23.244;2022-08-25T05:23:37;94411.56;;;22.18;83.61
11415;BME280;5763;42.714;23.244;2022-08-25T05:26:06;94425.34;;;22.29;83.21
11415;BME280;5763;42.714;23.244;2022-08-25T05:28:33;94417.50;;;22.27;82.91
11415;BME280;5763;42.714;23.244;2022-08-25T05:31:01;94419.53;;;22.27;83.45
11415;BME280;5763;42.714;23.244;2022-08-25T05:33:29;94425.66;;;22.25;84.21
11415;BME280;5763;42.714;23.244;2022-08-25T05:35:57;94426.84;;;22.30;84.58
11415;BME280;5763;42.714;23.244;2022-08-25T05:38:24;94426.84;;;22.30;83.89
11415;BME280;5763;42.714;23.244;2022-08-25T05:40:52;94423.00;;;22.33;84.63
11415;BME280;5763;42.714;23.244;2022-08-25T05:43:19;94414.41;;;22.31;84.20
11415;BME280;5763;42.714;23.244;2022-08-25T05:45:46;94389.69;;;22.09;84.29
11415;BME280;5763;42.714;23.244;2022-08-25T05:48:13;94428.03;;;22.34;84.66
11415;BME280;5763;42.714;23.244;2022-08-25T05:50:40;94419.88;;;22.36;84.54
11415;BME280;5763;42.714;23.244;2022-08-25T05:53:08;94422.91;;;22.38;84.88
11415;BME280;5763;42.714;23.244;2022-08-25T05:55:35;94415.50;;;22.41;84.93
11415;BME280;5763;42.714;23.244;2022-08-25T05:58:02;94425.00;;;22.32;86.03
11415;BME280;5763;42.714;23.244;2022-08-25T06:00:29;94424.72;;;22.36;86.13
11415;BME280;5763;42.714;23.244;2022-08-25T06:02:56;94418.38;;;22.35;86.43
11415;BME280;5763;42.714;23.244;2022-08-25T06:05:22;94428.47;;;22.38;86.69
11415;BME280;5763;42.714;23.244;2022-08-25T06:07:50;94424.56;;;22.47;86.42
11415;BME280;5763;42.714;23.244;2022-08-25T06:10:18;94417.69;;;22.48;86.16
11415;BME280;5763;42.714;23.244;2022-08-25T06:12:47;94424.75;;;22.49;86.66
11415;BME280;5763;42.714;23.244;2022-08-25T06:15:15;94434.94;;;22.46;86.98
11415;BME280;5763;42.714;23.244;2022-08-25T06:17:43;94429.81;;;22.50;86.29
11415;BME280;5763;42.714;23.244;2022-08-25T06:20:13;94428.31;;;22.62;85.42
11415;BME280;5763;42.714;23.244;2022-08-25T06:22:41;94412.22;;;22.55;85.87
11415;BME280;5763;42.714;23.244;2022-08-25T06:25:10;94432.72;;;22.71;84.89
11415;BME280;5763;42.714;23.244;2022-08-25T06:27:39;94424.81;;;22.62;84.98
11415;BME280;5763;42.714;23.244;2022-08-25T06:30:09;94416.00;;;22.71;84.47
11415;BME280;5763;42.714;23.244;2022-08-25T06:32:38;94425.44;;;22.81;84.45
11415;BME280;5763;42.714;23.244;2022-08-25T06:35:08;94409.38;;;22.87;83.90
11415;BME280;5763;42.714;23.244;2022-08-25T06:37:36;94412.69;;;22.98;83.01
11415;BME280;5763;42.714;23.244;2022-08-25T06:40:04;94424.28;;;23.02;82.67
11415;BME280;5763;42.714;23.244;2022-08-25T06:42:31;94419.00;;;23.12;82.12
11415;BME280;5763;42.714;23.244;2022-08-25T06:45:00;94428.03;;;23.31;81.46
11415;BME280;5763;42.714;23.244;2022-08-25T06:47:27;94416.53;;;23.34;80.66
11415;BME280;5763;42.714;23.244;2022-08-25T06:49:54;94421.81;;;23.38;80.96
11415;BME280;5763;42.714;23.244;2022-08-25T06:52:21;94423.50;;;23.41;81.10
11415;BME280;5763;42.714;23.244;2022-08-25T06:54:48;94420.38;;;23.44;81.11
11415;BME280;5763;42.714;23.244;2022-08-25T06:57:15;94414.47;;;23.48;80.14
11415;BME280;5763;42.714;23.244;2022-08-25T06:59:41;94420.38;;;23.57;78.55
11415;BME280;5763;42.714;23.244;2022-08-25T07:02:09;94424.00;;;23.65;78.47
11415;BME280;5763;42.714;23.244;2022-08-25T07:04:37;94420.22;;;23.63;78.17
11415;BME280;5763;42.714;23.244;2022-08-25T07:07:04;94419.94;;;23.66;78.24
11415;BME280;5763;42.714;23.244;2022-08-25T07:09:31;94427.91;;;23.83;76.97
11415;BME280;5763;42.714;23.244;2022-08-25T07:11:57;94422.56;;;23.85;77.50
11415;BME280;5763;42.714;23.244;2022-08-25T07:14:26;94414.09;;;23.77;77.99
11415;BME280;5763;42.714;23.244;2022-08-25T07:16:53;94420.84;;;23.82;77.83
11415;BME280;5763;42.714;23.244;2022-08-25T07:19:21;94422.09;;;23.94;76.64
11415;BME280;5763;42.714;23.244;2022-08-25T07:21:50;94427.66;;;24.07;76.39
11415;BME280;5763;42.714;23.244;2022-08-25T07:24:18;94420.69;;;24.00;77.44
11415;BME280;5763;42.714;23.244;2022-08-25T07:26:45;94428.00;;;24.03;76.55
11415;BME280;5763;42.714;23.244;2022-08-25T07:29:15;94423.78;;;24.10;75.52
11415;BME280;5763;42.714;23.244;2022-08-25T07:31:42;94427.59;;;24.20;75.05
11415;BME280;5763;42.714;23.244;2022-08-25T07:34:09;94425.53;;;24.20;75.11
11415;BME280;5763;42.714;23.244;2022-08-25T07:36:55;94434.00;;;24.28;73.61
11415;BME280;5763;42.714;23.244;2022-08-25T07:39:23;94429.91;;;24.29;73.93
11415;BME280;5763;42.714;23.244;2022-08-25T07:41:52;94426.84;;;24.19;74.85
11415;BME280;5763;42.714;23.244;2022-08-25T07:44:20;94427.81;;;24.22;75.24
11415;BME280;5763;42.714;23.244;2022-08-25T07:46:47;94431.47;;;24.17;75.46
11415;BME280;5763;42.714;23.244;2022-08-25T07:49:14;94427.38;;;24.18;75.53
11415;BME280;5763;42.714;23.244;2022-08-25T07:51:41;94427.25;;;24.23;75.60
11415;BME280;5763;42.714;23.244;2022-08-25T07:54:09;94430.31;;;24.33;75.79
11415;BME280;5763;42.714;23.244;2022-08-25T07:56:36;94427.00;;;24.34;75.63
11415;BME280;5763;42.714;23.244;2022-08-25T07:59:03;94423.38;;;24.47;75.91
11415;BME280;5763;42.714;23.244;2022-08-25T08:01:30;94419.69;;;24.52;76.00
11415;BME280;5763;42.714;23.244;2022-08-25T08:03:57;94432.88;;;24.64;73.79
11415;BME280;5763;42.714;23.244;2022-08-25T08:06:24;94426.44;;;24.77;72.98
11415;BME280;5763;42.714;23.244;2022-08-25T08:08:52;94424.47;;;24.92;73.02
11415;BME280;5763;42.714;23.244;2022-08-25T08:11:22;94421.56;;;24.98;73.23
11415;BME280;5763;42.714;23.244;2022-08-25T08:13:50;94415.72;;;24.96;73.62
11415;BME280;5763;42.714;23.244;2022-08-25T08:16:18;94424.19;;;25.03;71.22
11415;BME280;5763;42.714;23.244;2022-08-25T08:18:46;94415.50;;;25.14;70.47
11415;BME280;5763;42.714;23.244;2022-08-25T08:21:14;94414.09;;;25.28;69.61
11415;BME280;5763;42.714;23.244;2022-08-25T08:23:41;94412.63;;;25.35;69.31
11415;BME280;5763;42.714;23.244;2022-08-25T08:26:08;94401.06;;;25.38;69.33
11415;BME280;5763;42.714;23.244;2022-08-25T08:28:37;94406.00;;;25.53;69.28
11415;BME280;5763;42.714;23.244;2022-08-25T08:31:04;94403.97;;;25.61;69.91
11415;BME280;5763;42.714;23.244;2022-08-25T08:33:32;94397.25;;;25.64;68.47
11415;BME280;5763;42.714;23.244;2022-08-25T08:36:01;94380.47;;;25.71;68.47
11415;BME280;5763;42.714;23.244;2022-08-25T08:38:29;94392.31;;;25.92;68.77
11415;BME280;5763;42.714;23.244;2022-08-25T08:41:04;94399.88;;;26.20;66.06
11415;BME280;5763;42.714;23.244;2022-08-25T08:43:56;94393.13;;;26.38;65.20
11415;BME280;5763;42.714;23.244;2022-08-25T08:46:34;94387.91;;;26.49;64.25
11415;BME280;5763;42.714;23.244;2022-08-25T08:49:05;94396.34;;;26.64;64.07
11415;BME280;5763;42.714;23.244;2022-08-25T08:51:44;94387.94;;;26.64;63.44
11415;BME280;5763;42.714;23.244;2022-08-25T08:54:17;94396.34;;;26.72;63.16
11415;BME280;5763;42.714;23.244;2022-08-25T08:56:47;94392.06;;;26.71;62.29
11415;BME280;5763;42.714;23.244;2022-08-25T08:59:20;94385.50;;;26.83;62.97
11415;BME280;5763;42.714;23.244;2022-08-25T09:01:51;94390.69;;;27.09;62.28
11415;BME280;5763;42.714;23.244;2022-08-25T09:04:28;94388.06;;;27.19;60.11
11415;BME280;5763;42.714;23.244;2022-08-25T09:06:59;94373.81;;;27.17;59.96
11415;BME280;5763;42.714;23.244;2022-08-25T09:09:29;94371.56;;;27.15;59.89
11415;BME280;5763;42.714;23.244;2022-08-25T09:12:01;94371.19;;;27.11;60.42
11415;BME280;5763;42.714;23.244;2022-08-25T09:14:46;94376.41;;;27.15;60.00
11415;BME280;5763;42.714;23.244;2022-08-25T09:17:23;94365.41;;;27.09;58.98
11415;BME280;5763;42.714;23.244;2022-08-25T09:20:15;94375.88;;;27.09;58.04
11415;BME280;5763;42.714;23.244;2022-08-25T09:22:53;94368.38;;;27.11;57.45
11415;BME280;5763;42.714;23.244;2022-08-25T09:25:32;94365.19;;;27.22;57.51
11415;BME280;5763;42.714;23.244;2022-08-25T09:28:06;94365.13;;;27.45;56.93
11415;BME280;5763;42.714;23.244;2022-08-25T09:30:43;94368.44;;;27.58;57.59
11415;BME280;5763;42.714;23.244;2022-08-25T09:33:16;94362.44;;;27.54;55.79
11415;BME280;5763;42.714;23.244;2022-08-25T09:35:45;94352.94;;;27.42;56.12
11415;BME280;5763;42.714;23.244;2022-08-25T09:38:12;94362.78;;;27.66;56.98
11415;BME280;5763;42.714;23.244;2022-08-25T09:40:41;94357.28;;;27.75;56.54
11415;BME280;5763;42.714;23.244;2022-08-25T09:43:19;94350.44;;;27.61;54.81
11415;BME280;5763;42.714;23.244;2022-08-25T09:45:49;94349.38;;;27.42;50.98
11415;BME280;5763;42.714;23.244;2022-08-25T09:48:24;94358.44;;;27.25;51.74
11415;BME280;5763;42.714;23.244;2022-08-25T09:50:57;94345.34;;;27.13;51.64
11415;BME280;5763;42.714;23.244;2022-08-25T09:53:25;94361.66;;;27.07;52.48
11415;BME280;5763;42.714;23.244;2022-08-25T09:55:56;94351.56;;;26.96;54.14
11415;BME280;5763;42.714;23.244;2022-08-25T09:58:25;94355.91;;;26.75;53.99
11415;BME280;5763;42.714;23.244;2022-08-25T10:01:05;94361.16;;;26.71;54.16
11415;BME280;5763;42.714;23.244;2022-08-25T10:03:32;94352.16;;;26.50;54.76
11415;BME280;5763;42.714;23.244;2022-08-25T10:06:03;94356.84;;;26.40;55.23
11415;BME280;5763;42.714;23.244;2022-08-25T10:08:34;94362.25;;;26.38;55.61
11415;BME280;5763;42.714;23.244;2022-08-25T10:11:04;94368.06;;;26.40;56.28
11415;BME280;5763;42.714;23.244;2022-08-25T10:13:41;94371.25;;;26.51;56.51
11415;BME280;5763;42.714;23.244;2022-08-25T10:16:18;94360.41;;;26.70;54.38
11415;BME280;5763;42.714;23.244;2022-08-25T10:19:07;94366.78;;;26.78;53.98
11415;BME280;5763;42.714;23.244;2022-08-25T10:21:35;94354.53;;;26.98;54.19
11415;BME280;5763;42.714;23.244;2022-08-25T10:24:02;94350.03;;;27.18;53.70
11415;BME280;5763;42.714;23.244;2022-08-25T10:26:39;94340.25;;;27.26;54.12
11415;BME280;5763;42.714;23.244;2022-08-25T10:29:19;94349.91;;;27.55;53.79
11415;BME280;5763;42.714;23.244;2022-08-25T10:31:54;94346.38;;;27.87;47.86
11415;BME280;5763;42.714;23.244;2022-08-25T10:34:33;94331.47;;;28.01;48.11
11415;BME280;5763;42.714;23.244;2022-08-25T10:37:08;94347.84;;;28.20;48.53
11415;BME280;5763;42.714;23.244;2022-08-25T10:39:40;94340.28;;;28.54;47.13
11415;BME280;5763;42.714;23.244;2022-08-25T10:42:19;94343.38;;;28.66;46.96
11415;BME280;5763;42.714;23.244;2022-08-25T10:44:55;94338.25;;;28.72;46.38
11415;BME280;5763;42.714;23.244;2022-08-25T10:50:41;94336.41;;;29.08;47.11
11415;BME280;5763;42.714;23.244;2022-08-25T10:53:25;94334.91;;;29.41;46.24
11415;BME280;5763;42.714;23.244;2022-08-25T10:56:02;94334.16;;;29.41;43.57
11415;BME280;5763;42.714;23.244;2022-08-25T10:58:56;94317.41;;;29.26;43.48
11415;BME280;5763;42.714;23.244;2022-08-25T11:01:35;94332.31;;;29.36;44.55
11415;BME280;5763;42.714;23.244;2022-08-25T11:04:11;94336.38;;;29.76;44.16
11415;BME280;5763;42.714;23.244;2022-08-25T11:06:42;94330.44;;;30.08;44.11
11415;BME280;5763;42.714;23.244;2022-08-25T11:09:14;94329.34;;;30.57;42.77
11415;BME280;5763;42.714;23.244;2022-08-25T11:11:48;94327.25;;;30.93;41.54
11415;BME280;5763;42.714;23.244;2022-08-25T11:14:20;94324.41;;;31.03;42.27
11415;BME280;5763;42.714;23.244;2022-08-25T11:16:52;94311.41;;;30.71;40.94
11415;BME280;5763;42.714;23.244;2022-08-25T11:19:29;94312.38;;;30.47;40.99
11415;BME280;5763;42.714;23.244;2022-08-25T11:22:03;94319.91;;;30.09;42.61
11415;BME280;5763;42.714;23.244;2022-08-25T11:24:41;94314.72;;;29.62;43.32
11415;BME280;5763;42.714;23.244;2022-08-25T11:27:17;94306.31;;;29.28;44.08
11415;BME280;5763;42.714;23.244;2022-08-25T11:29:55;94317.91;;;28.98;44.55
11415;BME280;5763;42.714;23.244;2022-08-25T11:32:26;94312.56;;;28.68;45.73
11415;BME280;5763;42.714;23.244;2022-08-25T11:35:02;94304.44;;;28.72;45.56
11415;BME280;5763;42.714;23.244;2022-08-25T11:37:31;94303.19;;;29.07;45.98
11415;BME280;5763;42.714;23.244;2022-08-25T11:43:03;94297.41;;;30.18;43.92
11415;BME280;5763;42.714;23.244;2022-08-25T11:45:46;94286.88;;;30.74;40.62
11415;BME280;5763;42.714;23.244;2022-08-25T11:48:25;94292.06;;;30.68;40.45
11415;BME280;5763;42.714;23.244;2022-08-25T11:50:59;94288.44;;;30.58;41.20
11415;BME280;5763;42.714;23.244;2022-08-25T11:53:28;94290.03;;;30.32;41.48
11415;BME280;5763;42.714;23.244;2022-08-25T11:55:58;94291.75;;;29.92;43.51
11415;BME280;5763;42.714;23.244;2022-08-25T11:58:45;94290.34;;;29.40;43.99
11415;BME280;5763;42.714;23.244;2022-08-25T12:04:32;94281.94;;;29.93;43.38
11415;BME280;5763;42.714;23.244;2022-08-25T12:07:20;94272.91;;;30.30;42.55
11415;BME280;5763;42.714;23.244;2022-08-25T12:10:19;94282.34;;;30.52;42.35
11415;BME280;5763;42.714;23.244;2022-08-25T12:13:04;94269.78;;;30.26;43.70
11415;BME280;5763;42.714;23.244;2022-08-25T12:15:55;94273.22;;;30.34;42.95
11415;BME280;5763;42.714;23.244;2022-08-25T12:18:41;94275.69;;;30.66;42.27
11415;BME280;5763;42.714;23.244;2022-08-25T12:21:14;94279.47;;;31.07;41.58
11415;BME280;5763;42.714;23.244;2022-08-25T12:23:45;94273.41;;;31.29;40.36
11415;BME280;5763;42.714;23.244;2022-08-25T12:26:38;94270.69;;;31.03;39.57
11415;BME280;5763;42.714;23.244;2022-08-25T12:29:10;94265.47;;;30.71;39.23
11415;BME280;5763;42.714;23.244;2022-08-25T12:31:56;94213.72;;;29.87;41.31
11415;BME280;5763;42.714;23.244;2022-08-25T12:34:53;94282.31;;;30.06;42.60
11415;BME280;5763;42.714;23.244;2022-08-25T12:37:34;94276.59;;;30.14;42.18
11415;BME280;5763;42.714;23.244;2022-08-25T12:40:24;94274.91;;;30.47;42.23
11415;BME280;5763;42.714;23.244;2022-08-25T12:43:01;94272.19;;;30.30;42.51
11415;BME280;5763;42.714;23.244;2022-08-25T12:45:35;94270.84;;;30.86;40.59
11415;BME280;5763;42.714;23.244;2022-08-25T12:48:42;94271.31;;;31.20;39.10
11415;BME280;5763;42.714;23.244;2022-08-25T12:51:20;94270.38;;;30.80;39.88
11415;BME280;5763;42.714;23.244;2022-08-25T12:53:50;94267.00;;;30.45;40.37
11415;BME280;5763;42.714;23.244;2022-08-25T12:56:27;94264.38;;;30.11;41.20
11415;BME280;5763;42.714;23.244;2022-08-25T12:59:02;94268.59;;;29.67;41.29
11415;BME280;5763;42.714;23.244;2022-08-25T13:01:42;94261.13;;;29.62;42.80
11415;BME280;5763;42.714;23.244;2022-08-25T13:07:31;94266.88;;;30.07;42.73
11415;BME280;5763;42.714;23.244;2022-08-25T13:10:33;94282.22;;;29.61;44.04
11415;BME280;5763;42.714;23.244;2022-08-25T13:13:09;94271.63;;;29.35;43.02
11415;BME280;5763;42.714;23.244;2022-08-25T13:15:43;94275.47;;;29.13;43.47
11415;BME280;5763;42.714;23.244;2022-08-25T13:18:19;94277.44;;;28.86;43.12
11415;BME280;5763;42.714;23.244;2022-08-25T13:20:47;94276.69;;;28.68;43.32
11415;BME280;5763;42.714;23.244;2022-08-25T13:23:18;94276.00;;;28.60;43.20
11415;BME280;5763;42.714;23.244;2022-08-25T13:25:49;94286.63;;;28.69;42.99
11415;BME280;5763;42.714;23.244;2022-08-25T13:28:25;94269.84;;;29.13;42.68
11415;BME280;5763;42.714;23.244;2022-08-25T13:30:59;94270.28;;;29.53;42.58
11415;BME280;5763;42.714;23.244;2022-08-25T13:33:26;94263.84;;;29.69;42.37